sensor_id;sensor_type;location;lat;lon;timestamp;P1;durP1;ratioP1;P2;durP2;ratioP2
33926;SDS011;20485;50.992;5.550;2023-03-19T00:02:00;9.43;;;4.30;;
33926;SDS011;20485;50.992;5.550;2023-03-19T00:04:26;8.32;;;3.53;;
33926;SDS011;20485;50.992;5.550;2023-03-19T00:06:52;6.13;;;3.65;;
33926;SDS011;20485;50.992;5.550;2023-03-19T00:09:25;9.63;;;4.65;;
33926;SDS011;20485;50.992;5.550;2023-03-19T00:11:51;10.25;;;4.38;;
33926;SDS011;20485;50.992;5.550;2023-03-19T00:14:17;12.88;;;4.90;;
33926;SDS011;20485;50.992;5.550;2023-03-19T00:16:43;8.80;;;3.97;;
33926;SDS011;20485;50.992;5.550;2023-03-19T00:19:09;7.53;;;4.80;;
33926;SDS011;20485;50.992;5.550;2023-03-19T00:21:35;6.43;;;4.55;;
33926;SDS011;20485;50.992;5.550;2023-03-19T00:24:00;8.52;;;4.20;;
33926;SDS011;20485;50.992;5.550;2023-03-19T00:26:32;9.25;;;4.45;;
33926;SDS011;20485;50.992;5.550;2023-03-19T00:28:59;10.52;;;4.60;;
33926;SDS011;20485;50.992;5.550;2023-03-19T00:31:25;10.27;;;4.63;;
33926;SDS011;20485;50.992;5.550;2023-03-19T00:33:53;6.07;;;4.40;;
33926;SDS011;20485;50.992;5.550;2023-03-19T00:36:25;8.75;;;4.38;;
33926;SDS011;20485;50.992;5.550;2023-03-19T00:38:52;7.50;;;4.38;;
33926;SDS011;20485;50.992;5.550;2023-03-19T00:41:18;10.77;;;4.80;;
33926;SDS011;20485;50.992;5.550;2023-03-19T00:43:44;5.78;;;3.80;;
33926;SDS011;20485;50.992;5.550;2023-03-19T00:46:11;9.65;;;4.15;;
33926;SDS011;20485;50.992;5.550;2023-03-19T00:48:37;10.05;;;4.22;;
33926;SDS011;20485;50.992;5.550;2023-03-19T00:51:07;13.00;;;4.93;;
33926;SDS011;20485;50.992;5.550;2023-03-19T00:53:37;6.15;;;4.40;;
33926;SDS011;20485;50.992;5.550;2023-03-19T00:56:05;8.02;;;4.43;;
33926;SDS011;20485;50.992;5.550;2023-03-19T00:58:31;11.27;;;4.75;;
33926;SDS011;20485;50.992;5.550;2023-03-19T01:00:57;8.80;;;5.05;;
33926;SDS011;20485;50.992;5.550;2023-03-19T01:03:27;10.00;;;4.90;;
33926;SDS011;20485;50.992;5.550;2023-03-19T01:05:52;7.38;;;4.85;;
33926;SDS011;20485;50.992;5.550;2023-03-19T01:08:18;4.85;;;3.35;;
33926;SDS011;20485;50.992;5.550;2023-03-19T01:10:44;14.48;;;1.90;;
33926;SDS011;20485;50.992;5.550;2023-03-19T01:13:11;4.40;;;2.80;;
33926;SDS011;20485;50.992;5.550;2023-03-19T01:15:38;6.15;;;2.50;;
33926;SDS011;20485;50.992;5.550;2023-03-19T01:18:06;5.07;;;3.10;;
33926;SDS011;20485;50.992;5.550;2023-03-19T01:20:33;2.55;;;1.58;;
33926;SDS011;20485;50.992;5.550;2023-03-19T01:22:59;6.72;;;3.00;;
33926;SDS011;20485;50.992;5.550;2023-03-19T01:25:25;8.10;;;3.75;;
33926;SDS011;20485;50.992;5.550;2023-03-19T01:27:51;8.40;;;3.65;;
33926;SDS011;20485;50.992;5.550;2023-03-19T01:30:18;5.55;;;3.15;;
33926;SDS011;20485;50.992;5.550;2023-03-19T01:32:44;8.93;;;3.95;;
33926;SDS011;20485;50.992;5.550;2023-03-19T01:35:10;8.32;;;3.40;;
33926;SDS011;20485;50.992;5.550;2023-03-19T01:37:40;3.90;;;1.75;;
33926;SDS011;20485;50.992;5.550;2023-03-19T01:40:12;2.85;;;1.95;;
33926;SDS011;20485;50.992;5.550;2023-03-19T01:42:51;3.40;;;1.67;;
33926;SDS011;20485;50.992;5.550;2023-03-19T01:45:33;7.70;;;3.65;;
33926;SDS011;20485;50.992;5.550;2023-03-19T01:48:01;10.35;;;3.92;;
33926;SDS011;20485;50.992;5.550;2023-03-19T01:50:41;12.25;;;4.55;;
33926;SDS011;20485;50.992;5.550;2023-03-19T01:53:09;18.48;;;5.32;;
33926;SDS011;20485;50.992;5.550;2023-03-19T01:55:37;14.18;;;4.47;;
33926;SDS011;20485;50.992;5.550;2023-03-19T01:58:04;15.18;;;6.30;;
33926;SDS011;20485;50.992;5.550;2023-03-19T02:00:30;33.95;;;9.90;;
33926;SDS011;20485;50.992;5.550;2023-03-19T02:02:59;0.00;;;0.00;;
33926;SDS011;20485;50.992;5.550;2023-03-19T02:05:26;26.73;;;9.15;;
33926;SDS011;20485;50.992;5.550;2023-03-19T02:07:57;49.83;;;13.45;;
33926;SDS011;20485;50.992;5.550;2023-03-19T02:10:25;48.67;;;10.65;;
33926;SDS011;20485;50.992;5.550;2023-03-19T02:12:52;48.50;;;10.52;;
33926;SDS011;20485;50.992;5.550;2023-03-19T02:15:18;38.45;;;10.23;;
33926;SDS011;20485;50.992;5.550;2023-03-19T02:17:44;54.67;;;12.27;;
33926;SDS011;20485;50.992;5.550;2023-03-19T02:20:29;46.55;;;11.32;;
33926;SDS011;20485;50.992;5.550;2023-03-19T02:28:13;26.15;;;4.22;;
33926;SDS011;20485;50.992;5.550;2023-03-19T02:30:43;44.38;;;11.77;;
33926;SDS011;20485;50.992;5.550;2023-03-19T02:33:13;25.40;;;7.28;;
33926;SDS011;20485;50.992;5.550;2023-03-19T02:35:40;33.13;;;14.85;;
33926;SDS011;20485;50.992;5.550;2023-03-19T02:38:10;36.72;;;14.45;;
33926;SDS011;20485;50.992;5.550;2023-03-19T02:40:38;27.67;;;12.65;;
33926;SDS011;20485;50.992;5.550;2023-03-19T02:43:09;22.73;;;11.77;;
33926;SDS011;20485;50.992;5.550;2023-03-19T02:45:35;28.88;;;11.90;;
33926;SDS011;20485;50.992;5.550;2023-03-19T02:48:06;19.58;;;11.02;;
33926;SDS011;20485;50.992;5.550;2023-03-19T02:50:32;20.63;;;10.20;;
33926;SDS011;20485;50.992;5.550;2023-03-19T02:52:57;17.80;;;9.10;;
33926;SDS011;20485;50.992;5.550;2023-03-19T02:55:23;15.73;;;8.70;;
33926;SDS011;20485;50.992;5.550;2023-03-19T02:57:49;20.85;;;8.63;;
33926;SDS011;20485;50.992;5.550;2023-03-19T03:00:15;13.05;;;8.20;;
33926;SDS011;20485;50.992;5.550;2023-03-19T03:02:42;15.50;;;7.20;;
33926;SDS011;20485;50.992;5.550;2023-03-19T03:05:09;10.73;;;7.28;;
33926;SDS011;20485;50.992;5.550;2023-03-19T03:07:34;12.75;;;7.03;;
33926;SDS011;20485;50.992;5.550;2023-03-19T03:10:00;12.40;;;7.20;;
33926;SDS011;20485;50.992;5.550;2023-03-19T03:12:26;14.18;;;7.32;;
33926;SDS011;20485;50.992;5.550;2023-03-19T03:14:52;16.17;;;6.82;;
33926;SDS011;20485;50.992;5.550;2023-03-19T03:17:17;9.73;;;7.32;;
33926;SDS011;20485;50.992;5.550;2023-03-19T03:19:44;13.25;;;7.13;;
33926;SDS011;20485;50.992;5.550;2023-03-19T03:22:09;12.90;;;7.00;;
33926;SDS011;20485;50.992;5.550;2023-03-19T03:24:35;16.02;;;8.77;;
33926;SDS011;20485;50.992;5.550;2023-03-19T03:27:10;19.02;;;8.63;;
33926;SDS011;20485;50.992;5.550;2023-03-19T03:29:36;16.00;;;8.90;;
33926;SDS011;20485;50.992;5.550;2023-03-19T03:32:02;17.83;;;9.50;;
33926;SDS011;20485;50.992;5.550;2023-03-19T03:34:28;15.77;;;9.18;;
33926;SDS011;20485;50.992;5.550;2023-03-19T03:36:53;14.23;;;8.73;;
33926;SDS011;20485;50.992;5.550;2023-03-19T03:39:19;14.07;;;8.75;;
33926;SDS011;20485;50.992;5.550;2023-03-19T03:41:45;14.82;;;9.48;;
33926;SDS011;20485;50.992;5.550;2023-03-19T03:44:11;18.88;;;9.85;;
33926;SDS011;20485;50.992;5.550;2023-03-19T03:46:37;17.08;;;9.82;;
33926;SDS011;20485;50.992;5.550;2023-03-19T03:49:03;14.90;;;9.73;;
33926;SDS011;20485;50.992;5.550;2023-03-19T03:51:28;14.55;;;10.23;;
33926;SDS011;20485;50.992;5.550;2023-03-19T03:53:57;13.35;;;10.23;;
33926;SDS011;20485;50.992;5.550;2023-03-19T03:56:23;15.88;;;9.93;;
33926;SDS011;20485;50.992;5.550;2023-03-19T03:58:49;19.25;;;10.30;;
33926;SDS011;20485;50.992;5.550;2023-03-19T04:01:15;14.52;;;9.50;;
33926;SDS011;20485;50.992;5.550;2023-03-19T04:03:44;17.45;;;9.93;;
33926;SDS011;20485;50.992;5.550;2023-03-19T04:06:12;16.27;;;8.52;;
33926;SDS011;20485;50.992;5.550;2023-03-19T04:08:40;12.68;;;8.80;;
33926;SDS011;20485;50.992;5.550;2023-03-19T04:11:07;20.08;;;10.15;;
33926;SDS011;20485;50.992;5.550;2023-03-19T04:13:33;20.17;;;8.73;;
33926;SDS011;20485;50.992;5.550;2023-03-19T04:16:04;15.45;;;8.63;;
33926;SDS011;20485;50.992;5.550;2023-03-19T04:18:30;16.85;;;9.23;;
33926;SDS011;20485;50.992;5.550;2023-03-19T04:20:56;14.88;;;8.75;;
33926;SDS011;20485;50.992;5.550;2023-03-19T04:23:22;16.75;;;9.27;;
33926;SDS011;20485;50.992;5.550;2023-03-19T04:25:49;13.48;;;8.68;;
33926;SDS011;20485;50.992;5.550;2023-03-19T04:28:15;18.38;;;9.23;;
33926;SDS011;20485;50.992;5.550;2023-03-19T04:30:41;17.05;;;9.10;;
33926;SDS011;20485;50.992;5.550;2023-03-19T04:33:09;15.18;;;9.60;;
33926;SDS011;20485;50.992;5.550;2023-03-19T04:35:36;17.83;;;10.48;;
33926;SDS011;20485;50.992;5.550;2023-03-19T04:38:02;27.92;;;9.70;;
33926;SDS011;20485;50.992;5.550;2023-03-19T04:40:28;14.15;;;9.65;;
33926;SDS011;20485;50.992;5.550;2023-03-19T04:42:54;17.02;;;9.90;;
33926;SDS011;20485;50.992;5.550;2023-03-19T04:45:20;15.27;;;9.95;;
33926;SDS011;20485;50.992;5.550;2023-03-19T04:47:51;16.58;;;9.68;;
33926;SDS011;20485;50.992;5.550;2023-03-19T04:50:17;13.10;;;8.98;;
33926;SDS011;20485;50.992;5.550;2023-03-19T04:52:43;21.55;;;10.52;;
33926;SDS011;20485;50.992;5.550;2023-03-19T04:55:09;17.00;;;10.02;;
33926;SDS011;20485;50.992;5.550;2023-03-19T04:57:35;18.20;;;10.40;;
33926;SDS011;20485;50.992;5.550;2023-03-19T05:00:01;18.75;;;10.45;;
33926;SDS011;20485;50.992;5.550;2023-03-19T05:02:29;18.35;;;10.50;;
33926;SDS011;20485;50.992;5.550;2023-03-19T05:04:56;17.42;;;10.35;;
33926;SDS011;20485;50.992;5.550;2023-03-19T05:07:22;18.38;;;10.07;;
33926;SDS011;20485;50.992;5.550;2023-03-19T05:09:50;23.60;;;10.75;;
33926;SDS011;20485;50.992;5.550;2023-03-19T05:12:16;16.38;;;10.57;;
33926;SDS011;20485;50.992;5.550;2023-03-19T05:14:45;19.10;;;10.25;;
33926;SDS011;20485;50.992;5.550;2023-03-19T05:17:10;16.08;;;9.65;;
33926;SDS011;20485;50.992;5.550;2023-03-19T05:19:39;15.50;;;9.82;;
33926;SDS011;20485;50.992;5.550;2023-03-19T05:22:05;16.25;;;9.60;;
33926;SDS011;20485;50.992;5.550;2023-03-19T05:24:30;21.02;;;11.48;;
33926;SDS011;20485;50.992;5.550;2023-03-19T05:26:56;20.92;;;11.52;;
33926;SDS011;20485;50.992;5.550;2023-03-19T05:29:22;21.80;;;11.60;;
33926;SDS011;20485;50.992;5.550;2023-03-19T05:31:48;20.75;;;11.52;;
33926;SDS011;20485;50.992;5.550;2023-03-19T05:34:13;24.02;;;12.80;;
33926;SDS011;20485;50.992;5.550;2023-03-19T05:36:39;18.30;;;11.98;;
33926;SDS011;20485;50.992;5.550;2023-03-19T05:39:05;16.95;;;11.23;;
33926;SDS011;20485;50.992;5.550;2023-03-19T05:41:32;25.50;;;12.75;;
33926;SDS011;20485;50.992;5.550;2023-03-19T05:43:57;16.77;;;12.30;;
33926;SDS011;20485;50.992;5.550;2023-03-19T05:46:23;19.13;;;12.65;;
33926;SDS011;20485;50.992;5.550;2023-03-19T05:48:49;23.02;;;13.25;;
33926;SDS011;20485;50.992;5.550;2023-03-19T05:51:15;18.95;;;12.60;;
33926;SDS011;20485;50.992;5.550;2023-03-19T05:53:41;16.42;;;11.43;;
33926;SDS011;20485;50.992;5.550;2023-03-19T05:56:07;22.00;;;12.35;;
33926;SDS011;20485;50.992;5.550;2023-03-19T05:58:36;21.70;;;13.02;;
33926;SDS011;20485;50.992;5.550;2023-03-19T06:01:02;20.70;;;12.38;;
33926;SDS011;20485;50.992;5.550;2023-03-19T06:03:28;20.50;;;13.15;;
33926;SDS011;20485;50.992;5.550;2023-03-19T06:05:54;23.08;;;13.40;;
33926;SDS011;20485;50.992;5.550;2023-03-19T06:08:21;31.67;;;12.90;;
33926;SDS011;20485;50.992;5.550;2023-03-19T06:10:47;22.25;;;11.90;;
33926;SDS011;20485;50.992;5.550;2023-03-19T06:13:13;17.95;;;12.05;;
33926;SDS011;20485;50.992;5.550;2023-03-19T06:15:39;19.08;;;12.30;;
33926;SDS011;20485;50.992;5.550;2023-03-19T06:18:05;22.33;;;14.27;;
33926;SDS011;20485;50.992;5.550;2023-03-19T06:20:31;20.30;;;13.63;;
33926;SDS011;20485;50.992;5.550;2023-03-19T06:22:57;24.42;;;13.40;;
33926;SDS011;20485;50.992;5.550;2023-03-19T06:25:22;20.20;;;13.55;;
33926;SDS011;20485;50.992;5.550;2023-03-19T06:27:48;21.02;;;13.48;;
33926;SDS011;20485;50.992;5.550;2023-03-19T06:30:14;18.25;;;12.68;;
33926;SDS011;20485;50.992;5.550;2023-03-19T06:32:40;18.75;;;12.13;;
33926;SDS011;20485;50.992;5.550;2023-03-19T06:35:06;24.08;;;13.90;;
33926;SDS011;20485;50.992;5.550;2023-03-19T06:40:02;25.95;;;14.80;;
33926;SDS011;20485;50.992;5.550;2023-03-19T06:42:29;17.33;;;12.68;;
33926;SDS011;20485;50.992;5.550;2023-03-19T06:44:55;20.80;;;13.15;;
33926;SDS011;20485;50.992;5.550;2023-03-19T06:47:27;20.70;;;12.85;;
33926;SDS011;20485;50.992;5.550;2023-03-19T06:49:53;20.20;;;11.93;;
33926;SDS011;20485;50.992;5.550;2023-03-19T06:52:18;17.50;;;13.10;;
33926;SDS011;20485;50.992;5.550;2023-03-19T06:54:44;20.75;;;13.00;;
33926;SDS011;20485;50.992;5.550;2023-03-19T06:57:10;22.23;;;13.18;;
33926;SDS011;20485;50.992;5.550;2023-03-19T06:59:36;19.27;;;12.68;;
33926;SDS011;20485;50.992;5.550;2023-03-19T07:02:02;19.90;;;12.98;;
33926;SDS011;20485;50.992;5.550;2023-03-19T07:04:28;22.90;;;13.52;;
33926;SDS011;20485;50.992;5.550;2023-03-19T07:06:54;22.40;;;12.52;;
33926;SDS011;20485;50.992;5.550;2023-03-19T07:09:20;21.58;;;13.10;;
33926;SDS011;20485;50.992;5.550;2023-03-19T07:11:49;22.10;;;14.35;;
33926;SDS011;20485;50.992;5.550;2023-03-19T07:14:14;24.45;;;14.15;;
33926;SDS011;20485;50.992;5.550;2023-03-19T07:16:40;19.90;;;12.82;;
33926;SDS011;20485;50.992;5.550;2023-03-19T07:19:06;26.23;;;13.60;;
33926;SDS011;20485;50.992;5.550;2023-03-19T07:21:32;18.45;;;13.13;;
33926;SDS011;20485;50.992;5.550;2023-03-19T07:23:57;20.90;;;13.50;;
33926;SDS011;20485;50.992;5.550;2023-03-19T07:26:23;19.00;;;13.23;;
33926;SDS011;20485;50.992;5.550;2023-03-19T07:28:53;21.52;;;13.15;;
33926;SDS011;20485;50.992;5.550;2023-03-19T07:31:18;20.25;;;13.65;;
33926;SDS011;20485;50.992;5.550;2023-03-19T07:33:46;19.65;;;13.23;;
33926;SDS011;20485;50.992;5.550;2023-03-19T07:36:12;21.67;;;14.07;;
33926;SDS011;20485;50.992;5.550;2023-03-19T07:38:37;23.67;;;15.15;;
33926;SDS011;20485;50.992;5.550;2023-03-19T07:41:03;27.17;;;14.82;;
33926;SDS011;20485;50.992;5.550;2023-03-19T07:43:29;17.20;;;13.07;;
33926;SDS011;20485;50.992;5.550;2023-03-19T07:45:55;20.33;;;12.88;;
33926;SDS011;20485;50.992;5.550;2023-03-19T07:48:22;22.25;;;13.60;;
33926;SDS011;20485;50.992;5.550;2023-03-19T07:50:51;20.38;;;13.25;;
33926;SDS011;20485;50.992;5.550;2023-03-19T07:53:18;22.10;;;14.68;;
33926;SDS011;20485;50.992;5.550;2023-03-19T07:55:44;21.55;;;13.77;;
33926;SDS011;20485;50.992;5.550;2023-03-19T07:58:11;20.27;;;14.27;;
33926;SDS011;20485;50.992;5.550;2023-03-19T08:00:37;25.10;;;14.27;;
33926;SDS011;20485;50.992;5.550;2023-03-19T08:03:03;22.75;;;13.82;;
33926;SDS011;20485;50.992;5.550;2023-03-19T08:05:28;23.63;;;14.05;;
33926;SDS011;20485;50.992;5.550;2023-03-19T08:07:54;20.08;;;13.07;;
33926;SDS011;20485;50.992;5.550;2023-03-19T08:10:21;21.25;;;14.27;;
33926;SDS011;20485;50.992;5.550;2023-03-19T08:12:47;16.75;;;12.30;;
33926;SDS011;20485;50.992;5.550;2023-03-19T08:15:12;19.40;;;13.25;;
33926;SDS011;20485;50.992;5.550;2023-03-19T08:17:49;22.88;;;12.80;;
33926;SDS011;20485;50.992;5.550;2023-03-19T08:20:22;16.40;;;12.65;;
33926;SDS011;20485;50.992;5.550;2023-03-19T08:23:00;23.67;;;12.23;;
33926;SDS011;20485;50.992;5.550;2023-03-19T08:25:26;13.43;;;9.55;;
33926;SDS011;20485;50.992;5.550;2023-03-19T08:27:56;14.18;;;10.27;;
33926;SDS011;20485;50.992;5.550;2023-03-19T08:30:22;12.02;;;9.20;;
33926;SDS011;20485;50.992;5.550;2023-03-19T08:35:24;12.52;;;9.68;;
33926;SDS011;20485;50.992;5.550;2023-03-19T08:37:51;14.32;;;9.20;;
33926;SDS011;20485;50.992;5.550;2023-03-19T08:40:17;13.38;;;9.75;;
33926;SDS011;20485;50.992;5.550;2023-03-19T08:42:43;15.48;;;9.73;;
33926;SDS011;20485;50.992;5.550;2023-03-19T08:45:11;17.50;;;9.30;;
33926;SDS011;20485;50.992;5.550;2023-03-19T08:47:39;18.33;;;8.75;;
33926;SDS011;20485;50.992;5.550;2023-03-19T08:50:05;12.25;;;9.40;;
33926;SDS011;20485;50.992;5.550;2023-03-19T08:52:31;15.10;;;8.40;;
33926;SDS011;20485;50.992;5.550;2023-03-19T08:54:57;11.75;;;8.68;;
33926;SDS011;20485;50.992;5.550;2023-03-19T08:57:23;17.17;;;9.15;;
33926;SDS011;20485;50.992;5.550;2023-03-19T08:59:51;11.00;;;8.15;;
33926;SDS011;20485;50.992;5.550;2023-03-19T09:02:17;10.82;;;7.60;;
33926;SDS011;20485;50.992;5.550;2023-03-19T09:04:48;10.63;;;7.40;;
33926;SDS011;20485;50.992;5.550;2023-03-19T09:07:14;9.88;;;7.05;;
33926;SDS011;20485;50.992;5.550;2023-03-19T09:09:41;12.82;;;7.20;;
33926;SDS011;20485;50.992;5.550;2023-03-19T09:12:08;12.35;;;6.72;;
33926;SDS011;20485;50.992;5.550;2023-03-19T09:14:35;11.40;;;6.15;;
33926;SDS011;20485;50.992;5.550;2023-03-19T09:17:01;10.63;;;5.82;;
33926;SDS011;20485;50.992;5.550;2023-03-19T09:19:31;11.60;;;6.35;;
33926;SDS011;20485;50.992;5.550;2023-03-19T09:21:57;10.68;;;6.30;;
33926;SDS011;20485;50.992;5.550;2023-03-19T09:24:23;10.27;;;5.80;;
33926;SDS011;20485;50.992;5.550;2023-03-19T09:26:49;13.20;;;5.88;;
33926;SDS011;20485;50.992;5.550;2023-03-19T09:29:15;9.10;;;6.60;;
33926;SDS011;20485;50.992;5.550;2023-03-19T09:31:41;8.75;;;5.70;;
33926;SDS011;20485;50.992;5.550;2023-03-19T09:34:07;7.43;;;5.05;;
33926;SDS011;20485;50.992;5.550;2023-03-19T09:36:34;7.68;;;5.07;;
33926;SDS011;20485;50.992;5.550;2023-03-19T09:39:02;7.97;;;5.55;;
33926;SDS011;20485;50.992;5.550;2023-03-19T09:44:20;9.80;;;6.30;;
33926;SDS011;20485;50.992;5.550;2023-03-19T09:46:50;9.38;;;5.65;;
33926;SDS011;20485;50.992;5.550;2023-03-19T09:54:29;10.38;;;5.82;;
33926;SDS011;20485;50.992;5.550;2023-03-19T09:57:28;8.93;;;5.78;;
33926;SDS011;20485;50.992;5.550;2023-03-19T09:59:57;8.95;;;5.43;;
33926;SDS011;20485;50.992;5.550;2023-03-19T10:16:15;9.95;;;6.05;;
33926;SDS011;20485;50.992;5.550;2023-03-19T10:18:46;9.73;;;6.78;;
33926;SDS011;20485;50.992;5.550;2023-03-19T10:21:19;8.40;;;6.22;;
33926;SDS011;20485;50.992;5.550;2023-03-19T10:23:56;13.23;;;6.60;;
33926;SDS011;20485;50.992;5.550;2023-03-19T10:26:55;12.27;;;6.25;;
33926;SDS011;20485;50.992;5.550;2023-03-19T10:29:27;11.13;;;7.22;;
33926;SDS011;20485;50.992;5.550;2023-03-19T10:34:45;8.95;;;6.90;;
33926;SDS011;20485;50.992;5.550;2023-03-19T10:39:54;12.38;;;8.13;;
33926;SDS011;20485;50.992;5.550;2023-03-19T10:45:31;15.48;;;8.10;;
33926;SDS011;20485;50.992;5.550;2023-03-19T10:48:01;13.25;;;7.03;;
33926;SDS011;20485;50.992;5.550;2023-03-19T10:50:29;13.05;;;7.57;;
33926;SDS011;20485;50.992;5.550;2023-03-19T10:55:31;13.73;;;8.77;;
33926;SDS011;20485;50.992;5.550;2023-03-19T10:58:04;15.55;;;8.00;;
33926;SDS011;20485;50.992;5.550;2023-03-19T11:00:44;12.35;;;8.38;;
33926;SDS011;20485;50.992;5.550;2023-03-19T11:03:48;13.25;;;8.35;;
33926;SDS011;20485;50.992;5.550;2023-03-19T11:06:18;12.18;;;8.30;;
33926;SDS011;20485;50.992;5.550;2023-03-19T11:08:51;14.88;;;9.40;;
33926;SDS011;20485;50.992;5.550;2023-03-19T11:11:31;12.73;;;9.00;;
33926;SDS011;20485;50.992;5.550;2023-03-19T11:14:04;14.40;;;8.45;;
33926;SDS011;20485;50.992;5.550;2023-03-19T11:16:31;15.50;;;7.17;;
33926;SDS011;20485;50.992;5.550;2023-03-19T11:22:15;13.23;;;6.60;;
33926;SDS011;20485;50.992;5.550;2023-03-19T11:27:43;13.80;;;7.75;;
33926;SDS011;20485;50.992;5.550;2023-03-19T11:30:21;12.75;;;7.78;;
33926;SDS011;20485;50.992;5.550;2023-03-19T11:35:32;12.55;;;7.28;;
33926;SDS011;20485;50.992;5.550;2023-03-19T11:38:06;13.77;;;7.32;;
33926;SDS011;20485;50.992;5.550;2023-03-19T11:40:43;15.18;;;7.18;;
33926;SDS011;20485;50.992;5.550;2023-03-19T11:46:18;12.10;;;5.85;;
33926;SDS011;20485;50.992;5.550;2023-03-19T11:51:28;8.43;;;4.57;;
33926;SDS011;20485;50.992;5.550;2023-03-19T11:54:05;10.95;;;4.90;;
33926;SDS011;20485;50.992;5.550;2023-03-19T11:59:51;10.05;;;4.15;;
33926;SDS011;20485;50.992;5.550;2023-03-19T12:32:36;9.00;;;3.03;;
33926;SDS011;20485;50.992;5.550;2023-03-19T12:35:12;9.98;;;4.20;;
33926;SDS011;20485;50.992;5.550;2023-03-19T12:40:38;11.40;;;4.13;;
33926;SDS011;20485;50.992;5.550;2023-03-19T12:43:43;9.35;;;3.42;;
33926;SDS011;20485;50.992;5.550;2023-03-19T12:46:04;9.18;;;4.00;;
33926;SDS011;20485;50.992;5.550;2023-03-19T12:48:39;5.75;;;3.70;;
33926;SDS011;20485;50.992;5.550;2023-03-19T12:51:16;5.40;;;2.90;;
33926;SDS011;20485;50.992;5.550;2023-03-19T12:53:58;9.05;;;4.05;;
33926;SDS011;20485;50.992;5.550;2023-03-19T13:01:50;10.90;;;4.07;;
33926;SDS011;20485;50.992;5.550;2023-03-19T13:04:28;13.98;;;3.22;;
33926;SDS011;20485;50.992;5.550;2023-03-19T13:07:00;12.25;;;3.60;;
33926;SDS011;20485;50.992;5.550;2023-03-19T13:10:23;13.23;;;3.08;;
33926;SDS011;20485;50.992;5.550;2023-03-19T13:12:33;11.75;;;2.78;;
33926;SDS011;20485;50.992;5.550;2023-03-19T13:23:31;11.88;;;2.67;;
33926;SDS011;20485;50.992;5.550;2023-03-19T13:26:00;6.65;;;2.30;;
33926;SDS011;20485;50.992;5.550;2023-03-19T13:33:59;8.48;;;1.65;;
33926;SDS011;20485;50.992;5.550;2023-03-19T13:36:27;3.78;;;1.80;;
33926;SDS011;20485;50.992;5.550;2023-03-19T13:38:55;4.50;;;1.40;;
33926;SDS011;20485;50.992;5.550;2023-03-19T13:43:57;5.55;;;2.40;;
33926;SDS011;20485;50.992;5.550;2023-03-19T13:46:34;10.40;;;2.53;;
33926;SDS011;20485;50.992;5.550;2023-03-19T13:49:08;9.50;;;2.47;;
33926;SDS011;20485;50.992;5.550;2023-03-19T13:51:34;12.68;;;3.15;;
33926;SDS011;20485;50.992;5.550;2023-03-19T13:54:19;10.57;;;2.58;;
33926;SDS011;20485;50.992;5.550;2023-03-19T13:59:32;7.10;;;2.17;;
33926;SDS011;20485;50.992;5.550;2023-03-19T14:05:31;7.55;;;2.80;;
33926;SDS011;20485;50.992;5.550;2023-03-19T14:07:42;8.82;;;2.60;;
33926;SDS011;20485;50.992;5.550;2023-03-19T14:12:49;10.38;;;2.70;;
33926;SDS011;20485;50.992;5.550;2023-03-19T14:15:20;6.70;;;2.63;;
33926;SDS011;20485;50.992;5.550;2023-03-19T14:17:54;11.10;;;2.28;;
33926;SDS011;20485;50.992;5.550;2023-03-19T14:20:32;8.77;;;2.40;;
33926;SDS011;20485;50.992;5.550;2023-03-19T14:25:54;6.28;;;2.25;;
33926;SDS011;20485;50.992;5.550;2023-03-19T14:31:01;5.88;;;2.33;;
33926;SDS011;20485;50.992;5.550;2023-03-19T14:33:50;10.75;;;2.88;;
33926;SDS011;20485;50.992;5.550;2023-03-19T14:36:16;6.60;;;2.70;;
33926;SDS011;20485;50.992;5.550;2023-03-19T14:38:52;7.72;;;2.80;;
33926;SDS011;20485;50.992;5.550;2023-03-19T14:41:24;9.45;;;2.55;;
33926;SDS011;20485;50.992;5.550;2023-03-19T14:55:22;19.02;;;7.22;;
33926;SDS011;20485;50.992;5.550;2023-03-19T14:57:59;21.52;;;9.15;;
33926;SDS011;20485;50.992;5.550;2023-03-19T15:00:27;22.45;;;9.50;;
33926;SDS011;20485;50.992;5.550;2023-03-19T15:02:53;35.13;;;16.38;;
33926;SDS011;20485;50.992;5.550;2023-03-19T15:05:21;21.25;;;7.60;;
33926;SDS011;20485;50.992;5.550;2023-03-19T15:07:54;10.27;;;3.28;;
33926;SDS011;20485;50.992;5.550;2023-03-19T15:10:26;8.10;;;2.88;;
33926;SDS011;20485;50.992;5.550;2023-03-19T15:15:36;13.18;;;2.17;;
33926;SDS011;20485;50.992;5.550;2023-03-19T15:18:15;9.95;;;2.70;;
33926;SDS011;20485;50.992;5.550;2023-03-19T15:20:45;12.25;;;3.05;;
33926;SDS011;20485;50.992;5.550;2023-03-19T15:23:17;14.18;;;2.55;;
33926;SDS011;20485;50.992;5.550;2023-03-19T15:25:44;12.77;;;3.33;;
33926;SDS011;20485;50.992;5.550;2023-03-19T15:28:13;7.90;;;2.63;;
33926;SDS011;20485;50.992;5.550;2023-03-19T15:30:40;12.52;;;3.30;;
33926;SDS011;20485;50.992;5.550;2023-03-19T15:33:18;12.77;;;3.55;;
33926;SDS011;20485;50.992;5.550;2023-03-19T15:35:50;13.00;;;3.40;;
33926;SDS011;20485;50.992;5.550;2023-03-19T15:38:21;9.73;;;3.13;;
33926;SDS011;20485;50.992;5.550;2023-03-19T15:40:49;12.15;;;3.55;;
33926;SDS011;20485;50.992;5.550;2023-03-19T15:43:15;11.93;;;4.03;;
33926;SDS011;20485;50.992;5.550;2023-03-19T15:45:46;10.40;;;3.75;;
33926;SDS011;20485;50.992;5.550;2023-03-19T15:48:20;13.38;;;4.15;;
33926;SDS011;20485;50.992;5.550;2023-03-19T15:50:50;13.15;;;4.18;;
33926;SDS011;20485;50.992;5.550;2023-03-19T15:53:25;11.15;;;4.40;;
33926;SDS011;20485;50.992;5.550;2023-03-19T15:55:55;16.30;;;4.68;;
33926;SDS011;20485;50.992;5.550;2023-03-19T15:58:23;15.13;;;4.68;;
33926;SDS011;20485;50.992;5.550;2023-03-19T16:00:52;11.15;;;4.82;;
33926;SDS011;20485;50.992;5.550;2023-03-19T16:03:19;14.75;;;4.65;;
33926;SDS011;20485;50.992;5.550;2023-03-19T16:06:06;16.83;;;4.63;;
33926;SDS011;20485;50.992;5.550;2023-03-19T16:08:44;17.58;;;5.22;;
33926;SDS011;20485;50.992;5.550;2023-03-19T16:11:33;18.45;;;5.45;;
33926;SDS011;20485;50.992;5.550;2023-03-19T16:14:21;14.02;;;5.07;;
33926;SDS011;20485;50.992;5.550;2023-03-19T16:16:48;13.18;;;4.55;;
33926;SDS011;20485;50.992;5.550;2023-03-19T16:21:56;13.38;;;4.68;;
33926;SDS011;20485;50.992;5.550;2023-03-19T16:24:32;15.02;;;5.00;;
33926;SDS011;20485;50.992;5.550;2023-03-19T16:27:11;16.17;;;4.60;;
33926;SDS011;20485;50.992;5.550;2023-03-19T16:29:57;17.23;;;4.78;;
33926;SDS011;20485;50.992;5.550;2023-03-19T16:32:30;17.20;;;4.90;;
33926;SDS011;20485;50.992;5.550;2023-03-19T16:34:57;14.00;;;4.75;;
33926;SDS011;20485;50.992;5.550;2023-03-19T16:37:45;18.95;;;5.20;;
33926;SDS011;20485;50.992;5.550;2023-03-19T16:42:41;13.43;;;5.53;;
33926;SDS011;20485;50.992;5.550;2023-03-19T16:47:39;15.13;;;5.90;;
33926;SDS011;20485;50.992;5.550;2023-03-19T16:50:05;18.92;;;6.40;;
33926;SDS011;20485;50.992;5.550;2023-03-19T16:52:34;17.83;;;6.85;;
33926;SDS011;20485;50.992;5.550;2023-03-19T16:55:02;19.70;;;8.00;;
33926;SDS011;20485;50.992;5.550;2023-03-19T16:57:29;22.17;;;8.38;;
33926;SDS011;20485;50.992;5.550;2023-03-19T16:59:55;17.92;;;8.20;;
33926;SDS011;20485;50.992;5.550;2023-03-19T17:02:22;18.80;;;8.63;;
33926;SDS011;20485;50.992;5.550;2023-03-19T17:04:47;19.60;;;9.18;;
33926;SDS011;20485;50.992;5.550;2023-03-19T17:07:13;17.67;;;8.60;;
33926;SDS011;20485;50.992;5.550;2023-03-19T17:09:39;21.73;;;8.18;;
33926;SDS011;20485;50.992;5.550;2023-03-19T17:12:05;24.95;;;10.02;;
33926;SDS011;20485;50.992;5.550;2023-03-19T17:14:32;17.38;;;8.40;;
33926;SDS011;20485;50.992;5.550;2023-03-19T17:16:58;19.30;;;9.30;;